Time;durP1;ratioP1;P1;durP2;ratioP2;P2;SDS_P1;SDS_P2;PMS_P1;PMS_P2;Temp;Humidity;BMP_temperature;BMP_pressure;BME280_temperature;BME280_humidity;BME280_pressure;Samples;Min_cycle;Max_cycle;Signal;HPM_P1;HPM_P2
2022/08/29 00:06:04;;;;;;;0.20;0.00;;;25.40;99.90;;;;;;26171457;22;20183;-68
2022/08/29 00:16:08;;;;;;;0.20;0.10;;;25.30;99.90;;;;;;26142702;22;20186;-69
2022/08/29 00:26:13;;;;;;;0.20;0.00;;;25.00;99.90;;;;;;26143164;22;20178;-69
2022/08/29 00:36:17;;;;;;;0.20;0.10;;;25.00;99.90;;;;;;26142465;22;20251;-68
2022/08/29 00:46:46;;;;;;;0.20;0.00;;;25.00;99.90;;;;;;26143016;22;20163;-68
2022/08/29 00:56:51;;;;;;;0.20;0.00;;;25.10;99.90;;;;;;26170684;22;20191;-69
2022/08/29 01:06:56;;;;;;;0.20;0.00;;;25.10;99.90;;;;;;26142508;22;20184;-70
2022/08/29 01:17:02;;;;;;;0.20;0.00;;;25.00;99.90;;;;;;26173117;22;20176;-69
2022/08/29 01:27:09;;;;;;;0.20;0.00;;;24.90;99.90;;;;;;26176999;22;20152;-68
2022/08/29 01:37:15;;;;;;;0.20;0.00;;;24.80;99.90;;;;;;26175762;22;20186;-68
2022/08/29 01:47:22;;;;;;;0.20;0.10;;;24.60;99.90;;;;;;26148769;22;20156;-70
2022/08/29 01:57:25;;;;;;;0.20;0.00;;;24.50;99.90;;;;;;26148560;22;20199;-70
2022/08/29 02:07:31;;;;;;;0.20;0.00;;;24.50;99.90;;;;;;26176931;22;20195;-69
2022/08/29 02:17:35;;;;;;;0.20;0.00;;;24.60;99.90;;;;;;26175610;22;20195;-70
2022/08/29 02:27:41;;;;;;;0.20;0.00;;;24.30;99.90;;;;;;26175409;22;20174;-68
2022/08/29 02:37:45;;;;;;;0.20;0.00;;;24.20;99.90;;;;;;26146787;22;20183;-70
2022/08/29 02:47:50;;;;;;;0.20;0.00;;;24.50;99.90;;;;;;26173926;22;20163;-69
2022/08/29 02:57:55;;;;;;;0.20;0.00;;;24.50;99.90;;;;;;26174756;22;20191;-69
2022/08/29 03:08:01;;;;;;;0.20;0.00;;;24.50;99.90;;;;;;26172761;22;20184;-68
2022/08/29 03:18:05;;;;;;;0.20;0.00;;;24.40;99.90;;;;;;26173644;22;20159;-68
2022/08/29 03:28:10;;;;;;;0.20;0.00;;;24.40;99.90;;;;;;26171646;22;20194;-69
2022/08/29 03:38:13;;;;;;;0.20;0.00;;;24.10;99.90;;;;;;26172316;22;20348;-70
2022/08/29 03:48:19;;;;;;;0.20;0.00;;;23.90;99.90;;;;;;26170619;22;20188;-69
2022/08/29 03:58:22;;;;;;;0.20;0.00;;;23.90;99.90;;;;;;26171386;22;20202;-68
2022/08/29 04:08:28;;;;;;;0.20;0.00;;;24.20;99.90;;;;;;26170959;22;20202;-68
2022/08/29 04:18:32;;;;;;;0.20;0.00;;;24.20;99.90;;;;;;26171971;22;20174;-68
2022/08/29 04:28:37;;;;;;;0.20;0.00;;;24.10;99.90;;;;;;26170311;22;20183;-69
2022/08/29 04:38:41;;;;;;;0.20;0.00;;;24.10;99.90;;;;;;26142165;22;20167;-69
2022/08/29 04:48:46;;;;;;;0.20;0.00;;;24.00;99.90;;;;;;26171377;22;20546;-69
2022/08/29 04:58:50;;;;;;;0.20;0.10;;;23.90;99.90;;;;;;26177276;22;20187;-68
2022/08/29 05:08:56;;;;;;;0.20;0.00;;;24.00;99.90;;;;;;26177834;22;20191;-69
2022/08/29 05:19:03;;;;;;;0.20;0.00;;;24.40;99.90;;;;;;26174852;22;20215;-69
2022/08/29 05:29:10;;;;;;;0.20;0.00;;;24.50;99.90;;;;;;26176984;22;20191;-69
2022/08/29 05:39:14;;;;;;;0.20;0.00;;;24.40;99.90;;;;;;26173839;22;20164;-69
2022/08/29 05:49:19;;;;;;;0.20;0.00;;;24.70;99.90;;;;;;26147365;22;21177;-70
2022/08/29 05:59:23;;;;;;;0.20;0.00;;;24.90;99.90;;;;;;26171996;22;20188;-69
2022/08/29 06:09:28;;;;;;;0.20;0.00;;;24.90;99.90;;;;;;26149236;22;20191;-70
2022/08/29 06:19:33;;;;;;;0.20;0.00;;;25.10;99.90;;;;;;26172747;22;20164;-68
2022/08/29 06:29:39;;;;;;;0.20;0.10;;;25.50;99.90;;;;;;26172615;22;20201;-69
2022/08/29 06:39:46;;;;;;;0.20;0.00;;;25.80;99.90;;;;;;26170835;22;20178;-68
2022/08/29 06:49:51;;;;;;;0.20;0.00;;;26.10;99.90;;;;;;26170520;22;20194;-67
2022/08/29 06:59:55;;;;;;;0.20;0.00;;;26.30;99.90;;;;;;26144779;22;20202;-68
2022/08/29 07:10:00;;;;;;;0.20;0.00;;;26.70;99.90;;;;;;26168967;22;20191;-67
2022/08/29 07:20:05;;;;;;;0.20;0.00;;;26.90;99.90;;;;;;26144136;22;20193;-72
2022/08/29 07:30:15;;;;;;;0.20;0.00;;;27.30;99.90;;;;;;26168419;22;20198;-68
2022/08/29 07:40:19;;;;;;;0.20;0.00;;;27.70;99.90;;;;;;26168278;22;20160;-68
2022/08/29 07:50:24;;;;;;;0.20;0.00;;;28.00;99.90;;;;;;26168923;22;20184;-67
2022/08/29 08:00:28;;;;;;;0.20;0.00;;;28.00;99.90;;;;;;26168271;22;20202;-69
2022/08/29 08:10:33;;;;;;;0.20;0.00;;;27.80;99.90;;;;;;26169382;22;20186;-71
2022/08/29 08:20:37;;;;;;;0.20;0.00;;;28.50;99.90;;;;;;26168064;22;20152;-71
2022/08/29 08:30:42;;;;;;;0.20;0.00;;;29.00;99.90;;;;;;26174498;22;20191;-69
2022/08/29 08:40:55;;;;;;;0.20;0.00;;;29.30;99.90;;;;;;26175694;22;20163;-69
2022/08/29 08:51:05;;;;;;;0.20;0.00;;;29.40;99.90;;;;;;26150093;22;20198;-70
2022/08/29 09:01:18;;;;;;;0.20;0.00;;;29.80;99.90;;;;;;26147811;22;20198;-70
2022/08/29 09:11:34;;;;;;;0.20;0.00;;;30.20;99.90;;;;;;26173859;22;20198;-70
2022/08/29 09:21:45;;;;;;;0.20;0.00;;;30.70;99.90;;;;;;26174057;22;20144;-70
2022/08/29 09:32:06;;;;;;;0.20;0.00;;;31.20;99.90;;;;;;26171702;22;20179;-68
2022/08/29 09:42:21;;;;;;;0.20;0.00;;;30.20;99.90;;;;;;26142933;22;20151;-69
2022/08/29 09:52:25;;;;;;;0.20;0.00;;;29.60;99.90;;;;;;26171560;22;20193;-70
2022/08/29 10:02:36;;;;;;;0.20;0.00;;;29.30;99.90;;;;;;26143284;22;20274;-70
2022/08/29 10:12:51;;;;;;;0.20;0.00;;;29.60;99.90;;;;;;26144653;22;20209;-71
2022/08/29 10:23:02;;;;;;;0.20;0.00;;;29.50;99.90;;;;;;26168957;22;20163;-67
2022/08/29 10:33:21;;;;;;;0.20;0.00;;;29.30;99.90;;;;;;26167604;22;20179;-69
2022/08/29 10:43:39;;;;;;;0.20;0.00;;;29.00;99.90;;;;;;26170181;22;20175;-71
2022/08/29 10:53:45;;;;;;;0.20;0.00;;;29.20;99.90;;;;;;26170485;22;20194;-70
2022/08/29 11:03:59;;;;;;;0.20;0.03;;;29.60;99.90;;;;;;26170278;22;20167;-69
2022/08/29 11:14:08;;;;;;;0.20;0.00;;;29.90;99.90;;;;;;26139162;22;20203;-70
2022/08/29 11:24:16;;;;;;;0.20;0.00;;;29.50;99.90;;;;;;26168833;22;20167;-70
2022/08/29 11:34:35;;;;;;;0.20;0.00;;;29.00;99.90;;;;;;26169557;22;20188;-69
2022/08/29 11:44:44;;;;;;;0.20;0.00;;;29.30;99.90;;;;;;26139795;22;20167;-69
2022/08/29 11:55:16;;;;;;;0.20;0.00;;;30.30;99.90;;;;;;26167117;22;20286;-70
2022/08/29 12:05:54;;;;;;;0.20;0.00;;;29.70;99.90;;;;;;26140664;22;20183;-69
2022/08/29 12:16:07;;;;;;;0.20;0.00;;;30.40;99.90;;;;;;26137209;22;20282;-70
2022/08/29 12:26:39;;;;;;;0.20;0.00;;;30.30;99.90;;;;;;26139484;22;20164;-70
2022/08/29 12:37:04;;;;;;;0.20;0.00;;;33.00;99.90;;;;;;26163860;22;20176;-68
2022/08/29 12:47:10;;;;;;;0.20;0.00;;;32.90;99.90;;;;;;26138237;22;20159;-71
2022/08/29 12:57:21;;;;;;;0.20;0.00;;;34.60;99.90;;;;;;26166153;22;20199;-71
2022/08/29 13:07:26;;;;;;;0.20;0.00;;;33.70;99.90;;;;;;26138082;22;20190;-71
2022/08/29 13:17:36;;;;;;;0.20;0.00;;;32.90;99.90;;;;;;26172823;22;20250;-70
2022/08/29 13:27:39;;;;;;;0.20;0.00;;;35.40;99.90;;;;;;26173191;22;20183;-72
2022/08/29 13:37:46;;;;;;;0.20;0.00;;;34.40;99.90;;;;;;26145901;22;20203;-71
2022/08/29 13:48:13;;;;;;;0.20;0.00;;;34.50;99.90;;;;;;26173220;22;20178;-71
2022/08/29 13:58:21;;;;;;;0.20;0.00;;;34.90;99.90;;;;;;26143697;22;20195;-70
2022/08/29 14:08:25;;;;;;;0.20;0.00;;;35.10;99.90;;;;;;26169015;22;20179;-67
2022/08/29 14:18:30;;;;;;;0.20;0.00;;;35.70;99.90;;;;;;26171183;22;20199;-70
2022/08/29 14:28:35;;;;;;;0.20;0.00;;;34.60;99.90;;;;;;26141628;22;20167;-71
2022/08/29 14:38:45;;;;;;;0.20;0.00;;;35.10;99.90;;;;;;26169203;22;20198;-70
2022/08/29 14:48:48;;;;;;;0.20;0.00;;;36.20;99.90;;;;;;26171791;22;20169;-71
2022/08/29 14:58:53;;;;;;;0.20;0.00;;;36.00;99.90;;;;;;26169271;22;20202;-71
2022/08/29 15:08:58;;;;;;;0.20;0.00;;;36.00;99.90;;;;;;26170854;22;20175;-72
2022/08/29 15:19:03;;;;;;;0.20;0.00;;;35.80;99.90;;;;;;26167549;22;20183;-70
2022/08/29 15:29:27;;;;;;;0.20;0.00;;;35.50;99.90;;;;;;26165881;22;20171;-72
2022/08/29 15:39:33;;;;;;;0.20;0.00;;;33.70;99.90;;;;;;26140942;22;20183;-71
2022/08/29 15:49:37;;;;;;;0.20;0.00;;;30.90;99.90;;;;;;26141180;22;20155;-70
2022/08/29 15:59:42;;;;;;;0.20;0.00;;;30.90;99.90;;;;;;26139040;22;20195;-72
2022/08/29 16:10:00;;;;;;;0.20;0.00;;;31.50;99.90;;;;;;26163795;22;20187;-71
2022/08/29 16:20:15;;;;;;;0.20;0.00;;;30.80;99.90;;;;;;26167564;22;20226;-70
2022/08/29 16:30:19;;;;;;;0.20;0.00;;;30.70;99.90;;;;;;26166239;22;20148;-72
2022/08/29 16:40:26;;;;;;;0.20;0.00;;;30.70;99.90;;;;;;26167637;22;20163;-72
2022/08/29 16:50:30;;;;;;;0.20;0.00;;;30.30;99.90;;;;;;26169336;22;20194;-70
2022/08/29 17:00:35;;;;;;;0.20;0.00;;;30.40;99.90;;;;;;26172536;22;20187;-71
2022/08/29 17:20:44;;;;;;;0.20;0.00;;;30.20;99.90;;;;;;26144593;22;20175;-71
2022/08/29 17:30:49;;;;;;;0.20;0.00;;;29.80;99.90;;;;;;26171968;22;20175;-72
2022/08/29 17:40:58;;;;;;;0.20;0.00;;;29.00;99.90;;;;;;26171612;22;20178;-71
2022/08/29 17:51:02;;;;;;;0.20;0.00;;;28.50;99.90;;;;;;26173063;22;20187;-70
2022/08/29 18:01:08;;;;;;;0.20;0.00;;;28.40;99.90;;;;;;26168216;22;20230;-71
2022/08/29 18:11:18;;;;;;;0.20;0.00;;;28.10;99.90;;;;;;26145417;22;20211;-71
2022/08/29 18:21:24;;;;;;;0.20;0.00;;;27.90;99.90;;;;;;26170546;22;20193;-70
2022/08/29 18:31:28;;;;;;;0.20;0.00;;;27.90;99.90;;;;;;26168301;22;20202;-69
2022/08/29 18:41:33;;;;;;;0.20;0.00;;;27.70;99.90;;;;;;26170077;22;20179;-70
2022/08/29 18:51:37;;;;;;;0.20;0.00;;;27.70;99.90;;;;;;26169562;22;20183;-70
2022/08/29 19:01:43;;;;;;;0.20;0.00;;;27.60;99.90;;;;;;26140299;22;20191;-70
2022/08/29 19:11:47;;;;;;;0.20;0.00;;;27.90;99.90;;;;;;26166713;22;20207;-71
2022/08/29 19:21:52;;;;;;;0.20;0.00;;;27.90;99.90;;;;;;26137741;22;20174;-69
2022/08/29 19:31:56;;;;;;;0.20;0.00;;;28.20;99.90;;;;;;26137571;22;20221;-70
2022/08/29 19:42:01;;;;;;;0.20;0.00;;;27.50;99.90;;;;;;26114525;22;20167;-71
2022/08/29 19:52:05;;;;;;;0.20;0.10;;;27.40;99.90;;;;;;26141518;22;20194;-71
2022/08/29 20:02:10;;;;;;;0.20;0.00;;;27.40;99.90;;;;;;26141509;22;20202;-70
2022/08/29 20:12:14;;;;;;;0.20;0.00;;;27.50;99.90;;;;;;26170109;22;20198;-70
2022/08/29 20:22:20;;;;;;;0.20;0.00;;;27.50;99.90;;;;;;26143271;22;20209;-72
2022/08/29 20:32:24;;;;;;;0.20;0.10;;;27.00;99.90;;;;;;26141434;22;20199;-72
2022/08/29 20:42:30;;;;;;;0.20;0.03;;;27.00;99.90;;;;;;26168627;22;20167;-71
2022/08/29 20:52:36;;;;;;;0.20;0.00;;;26.90;99.90;;;;;;26170544;22;20194;-71
2022/08/29 21:13:03;;;;;;;0.20;0.00;;;27.10;99.90;;;;;;26166094;22;20187;-71
2022/08/29 21:23:08;;;;;;;0.20;0.00;;;27.20;99.90;;;;;;26141978;22;20167;-71
2022/08/29 21:33:15;;;;;;;0.20;0.00;;;27.30;99.90;;;;;;26170745;22;20194;-70
2022/08/29 21:43:20;;;;;;;0.20;0.00;;;27.60;99.90;;;;;;26174930;22;20301;-69
2022/08/29 21:53:24;;;;;;;0.20;0.00;;;27.50;99.90;;;;;;26174646;22;20187;-71
2022/08/29 22:03:29;;;;;;;0.20;0.00;;;26.90;99.90;;;;;;26175135;22;20191;-71
2022/08/29 22:13:33;;;;;;;0.20;0.00;;;26.40;99.90;;;;;;26148989;22;21103;-72
2022/08/29 22:23:38;;;;;;;0.20;0.10;;;26.10;99.90;;;;;;26146183;22;20171;-71
2022/08/29 22:33:42;;;;;;;0.20;0.00;;;26.20;99.90;;;;;;26175105;22;20184;-72
2022/08/29 22:43:47;;;;;;;0.20;0.00;;;25.80;99.90;;;;;;26147546;22;20167;-72
2022/08/29 23:04:12;;;;;;;0.20;0.00;;;25.80;99.90;;;;;;26172604;22;20202;-70
2022/08/29 23:14:16;;;;;;;0.20;0.10;;;26.00;99.90;;;;;;26173498;22;20191;-70
2022/08/29 23:24:25;;;;;;;0.20;0.10;;;25.50;99.90;;;;;;26173625;22;20167;-71
2022/08/29 23:34:30;;;;;;;0.20;0.20;;;25.00;99.90;;;;;;26173501;22;20187;-70
2022/08/29 23:44:35;;;;;;;0.20;0.10;;;24.90;99.90;;;;;;26172912;22;20171;-70
2022/08/29 23:54:39;;;;;;;0.20;0.00;;;25.00;99.90;;;;;;26146731;22;20215;-71
